Time;durP1;ratioP1;P1;durP2;ratioP2;P2;SDS_P1;SDS_P2;PMS_P1;PMS_P2;Temp;Humidity;BMP_temperature;BMP_pressure;BME280_temperature;BME280_humidity;BME280_pressure;Samples;Min_cycle;Max_cycle;Signal;HPM_P1;HPM_P2
2021/10/05 00:01:06;;;;;;;;;9.00;8.00;;;;;;;;2766853;51;8922;-59
2021/10/05 00:03:31;;;;;;;;;7.33;7.00;;;;;;;;2766925;51;8783;-59
2021/10/05 00:05:57;;;;;;;;;9.67;7.33;;;;;;;;2767087;51;8764;-59
2021/10/05 00:08:22;;;;;;;;;11.33;10.00;;;;;;;;2766977;51;8869;-61
2021/10/05 00:10:48;;;;;;;;;10.67;8.00;;;;;;;;2766871;51;8910;-59
2021/10/05 00:13:14;;;;;;;;;12.33;8.33;;;;;;;;2771595;51;8768;-59
2021/10/05 00:15:39;;;;;;;;;14.33;9.33;;;;;;;;2766836;51;9440;-58
2021/10/05 00:18:05;;;;;;;;;12.00;12.00;;;;;;;;2766780;51;8891;-60
2021/10/05 00:20:30;;;;;;;;;11.00;11.00;;;;;;;;2766692;51;9074;-58
2021/10/05 00:22:57;;;;;;;;;15.33;12.67;;;;;;;;2766854;51;8776;-59
2021/10/05 00:25:22;;;;;;;;;14.75;11.50;;;;;;;;2767064;51;8766;-60
2021/10/05 00:27:48;;;;;;;;;12.67;10.67;;;;;;;;2766796;51;8792;-61
2021/10/05 00:30:14;;;;;;;;;13.00;11.67;;;;;;;;2766766;51;8810;-60
2021/10/05 00:32:39;;;;;;;;;15.33;13.67;;;;;;;;2766673;51;9010;-60
2021/10/05 00:35:05;;;;;;;;;13.67;11.00;;;;;;;;2766926;51;8772;-59
2021/10/05 00:37:31;;;;;;;;;15.50;10.50;;;;;;;;2767005;51;8755;-59
2021/10/05 00:39:57;;;;;;;;;11.33;9.33;;;;;;;;2766670;51;8808;-58
2021/10/05 00:42:23;;;;;;;;;13.00;10.67;;;;;;;;2766595;51;11591;-59
2021/10/05 00:44:50;;;;;;;;;10.00;10.00;;;;;;;;2766856;51;8783;-58
2021/10/05 00:47:16;;;;;;;;;12.50;10.50;;;;;;;;2766963;51;8785;-59
2021/10/05 00:49:43;;;;;;;;;12.00;9.50;;;;;;;;2766696;51;8764;-60
2021/10/05 00:52:10;;;;;;;;;12.50;10.50;;;;;;;;2767426;51;8889;-59
2021/10/05 00:54:36;;;;;;;;;10.50;8.00;;;;;;;;2767609;51;8790;-58
2021/10/05 00:57:03;;;;;;;;;15.75;11.25;;;;;;;;2767782;51;8783;-60
2021/10/05 00:59:30;;;;;;;;;15.50;13.25;;;;;;;;2767679;51;8788;-59
2021/10/05 01:01:56;;;;;;;;;13.00;9.25;;;;;;;;2768182;51;8922;-58
2021/10/05 01:04:22;;;;;;;;;17.33;12.67;;;;;;;;2767665;51;8768;-59
2021/10/05 01:06:47;;;;;;;;;11.67;10.00;;;;;;;;2767613;51;9421;-59
2021/10/05 01:09:14;;;;;;;;;13.33;11.33;;;;;;;;2767698;51;8783;-59
2021/10/05 01:11:39;;;;;;;;;14.75;11.00;;;;;;;;2768308;51;8811;-59
2021/10/05 01:14:05;;;;;;;;;15.67;13.00;;;;;;;;2767898;51;9437;-58
2021/10/05 01:16:30;;;;;;;;;8.67;8.67;;;;;;;;2767560;51;8861;-59
2021/10/05 01:18:56;;;;;;;;;15.00;11.67;;;;;;;;2767909;51;8868;-58
2021/10/05 01:21:21;;;;;;;;;13.33;11.67;;;;;;;;2767491;51;8810;-61
2021/10/05 01:23:47;;;;;;;;;9.00;7.67;;;;;;;;2767754;51;9088;-59
2021/10/05 01:26:13;;;;;;;;;13.00;8.33;;;;;;;;2768034;51;8783;-59
2021/10/05 01:28:38;;;;;;;;;10.67;7.33;;;;;;;;2767959;51;8784;-59
2021/10/05 01:31:04;;;;;;;;;15.33;10.67;;;;;;;;2768130;51;8787;-58
2021/10/05 01:33:30;;;;;;;;;13.67;10.33;;;;;;;;2767820;51;8776;-59
2021/10/05 01:35:55;;;;;;;;;11.33;9.00;;;;;;;;2767584;51;8787;-59
2021/10/05 01:38:21;;;;;;;;;12.33;12.00;;;;;;;;2767465;51;8775;-58
2021/10/05 01:40:47;;;;;;;;;14.50;10.00;;;;;;;;2767344;51;8806;-59
2021/10/05 01:43:13;;;;;;;;;15.00;8.75;;;;;;;;2767691;51;8764;-59
2021/10/05 01:45:39;;;;;;;;;10.67;9.33;;;;;;;;2767494;51;8772;-58
2021/10/05 01:48:07;;;;;;;;;11.50;9.00;;;;;;;;2767396;51;8775;-58
2021/10/05 01:50:32;;;;;;;;;9.50;6.50;;;;;;;;2767727;51;8771;-59
2021/10/05 01:52:58;;;;;;;;;11.67;8.00;;;;;;;;2767414;51;8803;-58
2021/10/05 01:55:24;;;;;;;;;12.67;12.67;;;;;;;;2767502;51;10652;-58
2021/10/05 01:57:50;;;;;;;;;8.67;8.67;;;;;;;;2768042;51;8779;-59
2021/10/05 02:00:16;;;;;;;;;10.50;10.00;;;;;;;;2767225;51;8788;-59
2021/10/05 02:02:41;;;;;;;;;7.00;5.50;;;;;;;;2767031;51;9405;-59
2021/10/05 02:05:07;;;;;;;;;3.67;3.00;;;;;;;;2767776;51;8892;-59
2021/10/05 02:07:34;;;;;;;;;7.50;7.00;;;;;;;;2767501;51;8845;-58
2021/10/05 02:10:00;;;;;;;;;7.50;7.25;;;;;;;;2767415;51;8902;-59
2021/10/05 02:12:28;;;;;;;;;7.00;7.00;;;;;;;;2768013;51;8791;-58
2021/10/05 02:14:54;;;;;;;;;11.25;9.00;;;;;;;;2767419;51;9425;-60
2021/10/05 02:17:20;;;;;;;;;9.33;6.00;;;;;;;;2767299;51;8764;-58
2021/10/05 02:19:46;;;;;;;;;9.75;7.50;;;;;;;;2767265;51;8903;-59
2021/10/05 02:22:12;;;;;;;;;7.00;6.33;;;;;;;;2767504;51;9441;-58
2021/10/05 02:24:42;;;;;;;;;5.67;4.33;;;;;;;;2767483;51;8917;-59
2021/10/05 02:27:12;;;;;;;;;6.00;5.00;;;;;;;;2767415;51;8833;-58
2021/10/05 02:29:38;;;;;;;;;8.50;6.50;;;;;;;;2767539;51;8768;-58
2021/10/05 02:32:04;;;;;;;;;2.00;1.00;;;;;;;;2767561;51;8800;-60
2021/10/05 02:34:30;;;;;;;;;2.75;2.75;;;;;;;;2767220;51;8997;-59
2021/10/05 02:36:56;;;;;;;;;5.00;2.00;;;;;;;;2767216;51;8906;-59
2021/10/05 02:39:21;;;;;;;;;5.33;2.00;;;;;;;;2767302;51;8775;-58
2021/10/05 02:41:47;;;;;;;;;3.67;3.67;;;;;;;;2771887;51;9625;-59
2021/10/05 02:44:13;;;;;;;;;13.00;9.00;;;;;;;;2767303;51;8889;-59
2021/10/05 02:46:38;;;;;;;;;8.00;5.33;;;;;;;;2767215;51;8796;-59
2021/10/05 02:49:04;;;;;;;;;3.67;3.00;;;;;;;;2767404;51;8779;-59
2021/10/05 02:51:29;;;;;;;;;4.33;2.67;;;;;;;;2767223;51;8767;-58
2021/10/05 02:53:55;;;;;;;;;2.67;2.67;;;;;;;;2767103;51;8886;-60
2021/10/05 02:56:21;;;;;;;;;7.67;4.33;;;;;;;;2767166;51;8849;-59
2021/10/05 02:58:46;;;;;;;;;3.67;3.67;;;;;;;;2767160;51;8780;-59
2021/10/05 03:01:12;;;;;;;;;2.00;2.00;;;;;;;;2767116;51;8808;-59
2021/10/05 03:03:37;;;;;;;;;4.33;2.00;;;;;;;;2767353;51;8906;-60
2021/10/05 03:06:03;;;;;;;;;4.00;2.33;;;;;;;;2767124;51;8898;-59
2021/10/05 03:08:29;;;;;;;;;2.00;2.00;;;;;;;;2767290;51;8768;-58
2021/10/05 03:10:56;;;;;;;;;1.25;1.25;;;;;;;;2767260;51;8808;-59
2021/10/05 03:13:22;;;;;;;;;2.25;2.25;;;;;;;;2767270;51;8883;-59
2021/10/05 03:15:48;;;;;;;;;1.67;1.67;;;;;;;;2767428;51;8878;-57
2021/10/05 03:18:13;;;;;;;;;2.00;2.00;;;;;;;;2767277;51;11525;-62
2021/10/05 03:20:39;;;;;;;;;3.00;2.00;;;;;;;;2767281;51;8791;-58
2021/10/05 03:23:04;;;;;;;;;1.33;1.00;;;;;;;;2767280;51;8783;-59
2021/10/05 03:25:30;;;;;;;;;3.00;3.00;;;;;;;;2767285;51;8782;-60
2021/10/05 03:27:56;;;;;;;;;2.33;2.33;;;;;;;;2767342;51;8790;-59
2021/10/05 03:30:21;;;;;;;;;3.00;2.00;;;;;;;;2767250;51;8759;-60
2021/10/05 03:32:47;;;;;;;;;2.33;2.00;;;;;;;;2767060;51;9404;-59
2021/10/05 03:35:13;;;;;;;;;2.00;2.00;;;;;;;;2767037;51;8764;-63
2021/10/05 03:37:39;;;;;;;;;1.33;1.33;;;;;;;;2767070;51;8764;-61
2021/10/05 03:40:05;;;;;;;;;2.00;2.00;;;;;;;;2767096;51;9421;-60
2021/10/05 03:42:32;;;;;;;;;1.00;1.00;;;;;;;;2767253;51;8790;-60
2021/10/05 03:44:58;;;;;;;;;2.00;2.00;;;;;;;;2766910;51;8784;-61
2021/10/05 03:47:23;;;;;;;;;2.50;2.50;;;;;;;;2767328;51;8759;-59
2021/10/05 03:49:49;;;;;;;;;1.33;1.00;;;;;;;;2767163;51;8808;-59
2021/10/05 03:52:15;;;;;;;;;2.00;2.00;;;;;;;;2766935;51;8776;-59
2021/10/05 03:54:42;;;;;;;;;1.33;1.00;;;;;;;;2767226;51;8776;-61
2021/10/05 03:57:08;;;;;;;;;1.75;1.25;;;;;;;;2767471;51;8784;-58
2021/10/05 03:59:33;;;;;;;;;1.00;1.00;;;;;;;;2766881;51;8790;-59
2021/10/05 04:01:59;;;;;;;;;5.00;1.00;;;;;;;;2766803;51;8764;-61
2021/10/05 04:04:25;;;;;;;;;3.67;3.67;;;;;;;;2767038;51;8767;-59
2021/10/05 04:06:50;;;;;;;;;6.00;5.00;;;;;;;;2766950;51;8768;-63
2021/10/05 04:09:16;;;;;;;;;6.00;4.67;;;;;;;;2767159;51;8783;-60
2021/10/05 04:11:42;;;;;;;;;5.67;3.00;;;;;;;;2766997;51;8899;-59
2021/10/05 04:14:07;;;;;;;;;2.67;2.67;;;;;;;;2767201;51;8776;-61
2021/10/05 04:16:33;;;;;;;;;5.00;2.33;;;;;;;;2766894;51;8791;-58
2021/10/05 04:18:58;;;;;;;;;6.67;3.00;;;;;;;;2766705;51;9472;-59
2021/10/05 04:21:24;;;;;;;;;3.67;2.00;;;;;;;;2766767;51;8811;-60
2021/10/05 04:23:50;;;;;;;;;5.67;2.67;;;;;;;;2766991;51;8768;-59
2021/10/05 04:26:15;;;;;;;;;1.33;1.33;;;;;;;;2767647;51;8771;-59
2021/10/05 04:28:41;;;;;;;;;2.67;2.67;;;;;;;;2767874;51;8776;-59
2021/10/05 04:31:07;;;;;;;;;5.25;2.75;;;;;;;;2767844;51;8776;-61
2021/10/05 04:33:33;;;;;;;;;3.67;2.33;;;;;;;;2767827;51;8808;-64
2021/10/05 04:35:59;;;;;;;;;5.33;3.00;;;;;;;;2767821;51;9401;-62
2021/10/05 04:38:24;;;;;;;;;3.00;3.00;;;;;;;;2767812;51;9404;-60
2021/10/05 04:40:50;;;;;;;;;2.67;2.67;;;;;;;;2767715;51;8795;-60
2021/10/05 04:43:16;;;;;;;;;5.00;5.00;;;;;;;;2767635;51;8783;-60
2021/10/05 04:45:43;;;;;;;;;4.00;3.00;;;;;;;;2767624;51;8784;-59
2021/10/05 04:48:08;;;;;;;;;4.00;4.00;;;;;;;;2767986;51;8890;-59
2021/10/05 04:50:35;;;;;;;;;6.00;5.00;;;;;;;;2767679;51;8780;-60
2021/10/05 04:53:00;;;;;;;;;6.00;4.50;;;;;;;;2767591;51;8849;-58
2021/10/05 04:55:26;;;;;;;;;3.67;3.00;;;;;;;;2767881;51;8783;-60
2021/10/05 04:57:52;;;;;;;;;2.00;2.00;;;;;;;;2767591;51;8767;-60
2021/10/05 05:00:17;;;;;;;;;3.00;2.67;;;;;;;;2767487;51;8950;-62
2021/10/05 05:02:43;;;;;;;;;4.00;3.00;;;;;;;;2767809;51;8898;-62
2021/10/05 05:05:09;;;;;;;;;6.67;3.00;;;;;;;;2767631;51;8772;-59
2021/10/05 05:07:34;;;;;;;;;4.67;4.00;;;;;;;;2767682;51;8776;-59
2021/10/05 05:10:02;;;;;;;;;3.33;3.33;;;;;;;;2768125;51;8833;-60
2021/10/05 05:12:29;;;;;;;;;5.00;4.00;;;;;;;;2767752;51;8764;-60
2021/10/05 05:14:55;;;;;;;;;3.25;3.00;;;;;;;;2767550;51;8875;-58
2021/10/05 05:17:21;;;;;;;;;4.75;3.75;;;;;;;;2767508;51;8777;-62
2021/10/05 05:19:46;;;;;;;;;9.00;4.00;;;;;;;;2767530;51;8811;-59
2021/10/05 05:22:12;;;;;;;;;3.75;3.50;;;;;;;;2767786;51;8798;-60
2021/10/05 05:24:38;;;;;;;;;3.75;3.75;;;;;;;;2767466;51;8776;-62
2021/10/05 05:27:03;;;;;;;;;5.25;3.25;;;;;;;;2767443;51;8808;-59
2021/10/05 05:29:29;;;;;;;;;6.75;4.25;;;;;;;;2767498;51;8855;-60
2021/10/05 05:31:57;;;;;;;;;3.25;2.00;;;;;;;;2767460;51;8771;-59
2021/10/05 05:34:26;;;;;;;;;6.20;4.60;;;;;;;;2772130;51;8796;-60
2021/10/05 05:36:52;;;;;;;;;3.80;3.80;;;;;;;;2767743;51;8772;-59
2021/10/05 05:39:18;;;;;;;;;8.20;4.60;;;;;;;;2767260;51;8772;-63
2021/10/05 05:41:45;;;;;;;;;4.50;3.00;;;;;;;;2767664;51;8763;-59
2021/10/05 05:44:14;;;;;;;;;2.00;2.00;;;;;;;;2767809;51;8764;-60
2021/10/05 05:46:40;;;;;;;;;8.00;4.60;;;;;;;;2767623;51;8913;-60
2021/10/05 05:49:06;;;;;;;;;2.80;2.80;;;;;;;;2767275;51;8786;-60
2021/10/05 05:51:32;;;;;;;;;4.20;2.80;;;;;;;;2767449;51;8775;-60
2021/10/05 05:53:58;;;;;;;;;3.80;2.80;;;;;;;;2767481;51;8756;-59
2021/10/05 05:56:24;;;;;;;;;2.75;2.75;;;;;;;;2767548;51;8772;-60
2021/10/05 05:58:52;;;;;;;;;4.25;4.25;;;;;;;;2767561;51;8763;-60
2021/10/05 06:01:21;;;;;;;;;3.00;3.00;;;;;;;;2767494;51;8836;-60
2021/10/05 06:03:49;;;;;;;;;2.20;2.20;;;;;;;;2767394;51;8791;-59
2021/10/05 06:06:15;;;;;;;;;2.00;2.00;;;;;;;;2767839;51;8798;-60
2021/10/05 06:08:41;;;;;;;;;2.80;2.80;;;;;;;;2767215;51;8894;-59
2021/10/05 06:11:07;;;;;;;;;1.80;1.80;;;;;;;;2767232;51;8888;-61
2021/10/05 06:13:33;;;;;;;;;4.25;4.25;;;;;;;;2767523;51;8787;-60
2021/10/05 06:15:58;;;;;;;;;1.25;1.25;;;;;;;;2767289;51;8779;-61
2021/10/05 06:18:24;;;;;;;;;2.00;2.00;;;;;;;;2767159;51;8795;-60
2021/10/05 06:20:50;;;;;;;;;2.00;2.00;;;;;;;;2767244;51;8889;-60
2021/10/05 06:23:15;;;;;;;;;1.50;1.50;;;;;;;;2767217;51;8783;-61
2021/10/05 06:25:42;;;;;;;;;2.25;1.75;;;;;;;;2767608;51;8803;-58
2021/10/05 06:28:08;;;;;;;;;3.00;2.00;;;;;;;;2767712;51;8798;-60
2021/10/05 06:30:34;;;;;;;;;1.80;1.20;;;;;;;;2767397;51;8886;-59
2021/10/05 06:33:00;;;;;;;;;1.20;1.00;;;;;;;;2767276;51;8779;-60
2021/10/05 06:35:28;;;;;;;;;0.75;0.75;;;;;;;;2767266;51;8775;-60
2021/10/05 06:37:55;;;;;;;;;1.00;0.80;;;;;;;;2767670;51;8783;-61
2021/10/05 06:40:21;;;;;;;;;1.00;1.00;;;;;;;;2767309;51;8792;-60
2021/10/05 06:42:47;;;;;;;;;1.00;1.00;;;;;;;;2767820;51;8810;-59
2021/10/05 06:45:13;;;;;;;;;2.60;0.40;;;;;;;;2767241;51;8772;-60
2021/10/05 06:47:39;;;;;;;;;2.00;1.00;;;;;;;;2767389;51;8771;-60
2021/10/05 06:50:06;;;;;;;;;1.40;1.00;;;;;;;;2766998;51;8779;-60
2021/10/05 06:52:32;;;;;;;;;1.00;1.00;;;;;;;;2767404;51;8783;-61
2021/10/05 06:54:58;;;;;;;;;4.00;1.00;;;;;;;;2767155;51;8787;-61
2021/10/05 06:57:23;;;;;;;;;1.00;1.00;;;;;;;;2767212;51;8799;-64
2021/10/05 06:59:49;;;;;;;;;1.75;1.00;;;;;;;;2767109;51;8927;-60
2021/10/05 07:02:15;;;;;;;;;2.25;2.25;;;;;;;;2767849;51;8771;-61
2021/10/05 07:04:40;;;;;;;;;1.00;1.00;;;;;;;;2767628;51;8763;-61
2021/10/05 07:07:06;;;;;;;;;1.00;1.00;;;;;;;;2767226;51;8837;-61
2021/10/05 07:09:31;;;;;;;;;1.50;1.00;;;;;;;;2767494;51;8795;-61
2021/10/05 07:11:57;;;;;;;;;1.00;1.00;;;;;;;;2767629;51;8873;-60
2021/10/05 07:14:23;;;;;;;;;1.00;1.00;;;;;;;;2767305;51;9385;-62
2021/10/05 07:16:48;;;;;;;;;1.75;0.25;;;;;;;;2767586;51;8772;-61
2021/10/05 07:19:14;;;;;;;;;1.75;1.75;;;;;;;;2767075;51;8772;-61
2021/10/05 07:21:40;;;;;;;;;0.75;0.75;;;;;;;;2767107;51;8810;-60
2021/10/05 07:24:05;;;;;;;;;3.33;1.67;;;;;;;;2767050;51;8794;-61
2021/10/05 07:26:31;;;;;;;;;1.75;1.75;;;;;;;;2767086;51;8768;-60
2021/10/05 07:28:57;;;;;;;;;1.67;1.67;;;;;;;;2766964;51;8816;-60
2021/10/05 07:31:22;;;;;;;;;0.67;0.67;;;;;;;;2767050;51;8772;-61
2021/10/05 07:33:48;;;;;;;;;1.75;1.75;;;;;;;;2767237;51;8779;-60
2021/10/05 07:36:13;;;;;;;;;1.33;1.33;;;;;;;;2767347;51;8783;-61
2021/10/05 07:38:39;;;;;;;;;3.00;3.00;;;;;;;;2767126;51;8821;-60
2021/10/05 07:41:06;;;;;;;;;2.00;2.00;;;;;;;;2766961;51;8930;-60
2021/10/05 07:43:31;;;;;;;;;0.75;0.75;;;;;;;;2766969;51;8782;-60
2021/10/05 07:45:59;;;;;;;;;1.00;1.00;;;;;;;;2767110;51;8795;-60
2021/10/05 07:48:26;;;;;;;;;0.75;0.75;;;;;;;;2767106;51;9357;-60
2021/10/05 07:50:52;;;;;;;;;0.00;0.00;;;;;;;;2766883;51;8779;-64
2021/10/05 07:53:17;;;;;;;;;0.75;0.75;;;;;;;;2766938;51;8775;-64
2021/10/05 07:55:43;;;;;;;;;0.00;0.00;;;;;;;;2767059;51;8788;-61
2021/10/05 07:58:09;;;;;;;;;0.67;0.00;;;;;;;;2766877;51;8869;-60
2021/10/05 08:00:34;;;;;;;;;0.00;0.00;;;;;;;;2766973;51;8807;-58
2021/10/05 08:03:00;;;;;;;;;0.00;0.00;;;;;;;;2767910;51;8899;-58
2021/10/05 08:05:26;;;;;;;;;0.00;0.00;;;;;;;;2772795;51;8763;-59
2021/10/05 08:07:56;;;;;;;;;0.00;0.00;;;;;;;;2768079;51;8790;-59
2021/10/05 08:10:21;;;;;;;;;0.00;0.00;;;;;;;;2767861;51;8804;-58
2021/10/05 08:12:47;;;;;;;;;0.00;0.00;;;;;;;;2768349;51;8799;-59
2021/10/05 08:15:13;;;;;;;;;0.00;0.00;;;;;;;;2768089;51;8798;-60
2021/10/05 08:17:39;;;;;;;;;1.00;0.00;;;;;;;;2767823;51;8791;-60
2021/10/05 08:20:05;;;;;;;;;0.00;0.00;;;;;;;;2768879;51;9288;-61
2021/10/05 08:22:31;;;;;;;;;0.00;0.00;;;;;;;;2772240;51;8781;-63
2021/10/05 08:24:57;;;;;;;;;0.00;0.00;;;;;;;;2768661;51;9451;-58
2021/10/05 08:27:22;;;;;;;;;0.00;0.00;;;;;;;;2768498;51;8780;-59
2021/10/05 08:29:49;;;;;;;;;0.00;0.00;;;;;;;;2773809;51;8895;-59
2021/10/05 08:32:15;;;;;;;;;0.00;0.00;;;;;;;;2774518;51;8765;-59
2021/10/05 08:34:41;;;;;;;;;0.00;0.00;;;;;;;;2773703;51;8903;-61
2021/10/05 08:37:07;;;;;;;;;0.00;0.00;;;;;;;;2770326;51;8781;-59
2021/10/05 08:39:33;;;;;;;;;0.00;0.00;;;;;;;;2769843;51;8813;-61
2021/10/05 08:41:58;;;;;;;;;1.00;0.00;;;;;;;;2770219;51;8814;-59
2021/10/05 08:44:25;;;;;;;;;0.00;0.00;;;;;;;;2769522;51;8789;-58
2021/10/05 08:46:51;;;;;;;;;0.00;0.00;;;;;;;;2770086;51;8886;-57
2021/10/05 08:49:18;;;;;;;;;0.00;0.00;;;;;;;;2769598;51;8894;-59
2021/10/05 08:51:44;;;;;;;;;0.50;0.50;;;;;;;;2769374;51;8799;-58
2021/10/05 08:54:10;;;;;;;;;0.00;0.00;;;;;;;;2769834;51;8784;-57
2021/10/05 08:56:36;;;;;;;;;0.00;0.00;;;;;;;;2769539;51;8773;-61
2021/10/05 08:59:02;;;;;;;;;0.00;0.00;;;;;;;;2770031;51;8806;-59
2021/10/05 09:01:32;;;;;;;;;0.00;0.00;;;;;;;;2769508;51;12067;-61
2021/10/05 09:03:57;;;;;;;;;0.00;0.00;;;;;;;;2769602;51;11440;-60
2021/10/05 09:06:23;;;;;;;;;0.00;0.00;;;;;;;;2770046;51;8767;-62
2021/10/05 09:08:50;;;;;;;;;0.25;0.25;;;;;;;;2769504;51;8919;-59
2021/10/05 09:11:17;;;;;;;;;0.00;0.00;;;;;;;;2769295;51;8789;-59
2021/10/05 09:13:50;;;;;;;;;0.00;0.00;;;;;;;;2769669;51;8930;-59
2021/10/05 09:16:26;;;;;;;;;0.00;0.00;;;;;;;;2769515;51;8765;-59
2021/10/05 09:18:53;;;;;;;;;0.00;0.00;;;;;;;;2769663;51;8772;-60
2021/10/05 09:21:18;;;;;;;;;0.00;0.00;;;;;;;;2769570;51;8809;-59
2021/10/05 09:23:51;;;;;;;;;0.00;0.00;;;;;;;;2768637;51;8813;-61
2021/10/05 09:26:17;;;;;;;;;0.00;0.00;;;;;;;;2769209;51;8777;-58
2021/10/05 09:28:42;;;;;;;;;0.00;0.00;;;;;;;;2769436;51;8833;-60
2021/10/05 09:31:08;;;;;;;;;0.00;0.00;;;;;;;;2769863;51;8821;-58
2021/10/05 09:33:34;;;;;;;;;0.00;0.00;;;;;;;;2769917;51;8781;-60
2021/10/05 09:36:00;;;;;;;;;0.00;0.00;;;;;;;;2769415;51;8794;-60
2021/10/05 09:38:27;;;;;;;;;0.00;0.00;;;;;;;;2769719;51;8783;-60
2021/10/05 09:41:04;;;;;;;;;0.00;0.00;;;;;;;;2769424;51;8824;-59
2021/10/05 09:43:30;;;;;;;;;0.00;0.00;;;;;;;;2769504;51;9405;-59
2021/10/05 09:46:11;;;;;;;;;0.00;0.00;;;;;;;;2769382;51;8772;-61
2021/10/05 09:48:37;;;;;;;;;1.50;0.00;;;;;;;;2769200;51;8816;-62
2021/10/05 09:51:19;;;;;;;;;0.00;0.00;;;;;;;;2769595;51;8787;-61
2021/10/05 09:53:44;;;;;;;;;0.00;0.00;;;;;;;;2769617;51;8755;-60
2021/10/05 09:56:12;;;;;;;;;0.00;0.00;;;;;;;;2769301;51;8862;-59
2021/10/05 09:58:39;;;;;;;;;0.00;0.00;;;;;;;;2769367;51;8809;-60
2021/10/05 10:01:05;;;;;;;;;0.00;0.00;;;;;;;;2769203;51;8792;-59
2021/10/05 10:03:31;;;;;;;;;0.00;0.00;;;;;;;;2769374;51;8858;-59
2021/10/05 10:05:57;;;;;;;;;0.00;0.00;;;;;;;;2769608;51;8800;-58
2021/10/05 10:08:24;;;;;;;;;0.00;0.00;;;;;;;;2769395;51;8803;-58
2021/10/05 10:10:49;;;;;;;;;0.00;0.00;;;;;;;;2769544;51;8804;-59
2021/10/05 10:13:18;;;;;;;;;0.00;0.00;;;;;;;;2769381;51;8779;-60
2021/10/05 10:15:45;;;;;;;;;0.00;0.00;;;;;;;;2769248;51;8890;-59
2021/10/05 10:18:17;;;;;;;;;0.00;0.00;;;;;;;;2769402;51;9540;-59
2021/10/05 10:20:45;;;;;;;;;0.00;0.00;;;;;;;;2769187;51;8932;-58
2021/10/05 10:23:19;;;;;;;;;0.00;0.00;;;;;;;;2769114;51;9430;-59
2021/10/05 10:26:11;;;;;;;;;0.00;0.00;;;;;;;;2769301;51;8779;-60
2021/10/05 10:28:38;;;;;;;;;0.00;0.00;;;;;;;;2769097;51;8768;-59
2021/10/05 10:31:05;;;;;;;;;0.00;0.00;;;;;;;;2769089;51;8829;-59
2021/10/05 10:33:47;;;;;;;;;0.00;0.00;;;;;;;;2769247;51;8820;-61
2021/10/05 10:36:14;;;;;;;;;0.75;0.00;;;;;;;;2769391;51;8862;-59
2021/10/05 10:38:42;;;;;;;;;0.00;0.00;;;;;;;;2769179;51;8804;-63
2021/10/05 10:41:16;;;;;;;;;0.00;0.00;;;;;;;;2769153;51;8811;-58
2021/10/05 10:43:52;;;;;;;;;0.00;0.00;;;;;;;;2769336;51;8787;-62
2021/10/05 10:46:28;;;;;;;;;0.00;0.00;;;;;;;;2769313;51;8901;-59
2021/10/05 10:48:55;;;;;;;;;0.00;0.00;;;;;;;;2769122;51;8776;-61
2021/10/05 10:51:24;;;;;;;;;0.00;0.00;;;;;;;;2769429;51;8779;-61
2021/10/05 10:53:50;;;;;;;;;0.00;0.00;;;;;;;;2769261;51;8902;-62
2021/10/05 10:56:27;;;;;;;;;0.00;0.00;;;;;;;;2768951;51;8789;-63
2021/10/05 10:58:57;;;;;;;;;0.00;0.00;;;;;;;;2769239;51;8878;-60
2021/10/05 11:01:33;;;;;;;;;0.00;0.00;;;;;;;;2768706;51;8896;-60
2021/10/05 11:04:03;;;;;;;;;0.00;0.00;;;;;;;;2769050;51;8810;-60
2021/10/05 11:06:28;;;;;;;;;0.00;0.00;;;;;;;;2769055;51;8793;-62
2021/10/05 11:08:54;;;;;;;;;0.00;0.00;;;;;;;;2768942;51;8802;-60
2021/10/05 11:11:35;;;;;;;;;0.00;0.00;;;;;;;;2769260;51;8809;-60
2021/10/05 11:14:01;;;;;;;;;0.25;0.00;;;;;;;;2769180;51;8795;-62
2021/10/05 11:16:29;;;;;;;;;0.00;0.00;;;;;;;;2768886;51;8785;-60
2021/10/05 11:19:08;;;;;;;;;0.00;0.00;;;;;;;;2768765;51;8772;-60
2021/10/05 11:21:35;;;;;;;;;0.00;0.00;;;;;;;;2767539;51;8882;-61
2021/10/05 11:24:01;;;;;;;;;0.00;0.00;;;;;;;;2768318;51;8787;-61
2021/10/05 11:26:30;;;;;;;;;0.00;0.00;;;;;;;;2769190;51;8819;-62
2021/10/05 11:28:56;;;;;;;;;0.00;0.00;;;;;;;;2768979;51;8815;-64
2021/10/05 11:31:22;;;;;;;;;0.00;0.00;;;;;;;;2768842;51;8829;-65
2021/10/05 11:33:47;;;;;;;;;0.00;0.00;;;;;;;;2769411;51;8966;-61
2021/10/05 11:36:14;;;;;;;;;0.00;0.00;;;;;;;;2768892;51;8889;-63
2021/10/05 11:38:44;;;;;;;;;0.00;0.00;;;;;;;;2769085;51;8765;-61
2021/10/05 11:41:10;;;;;;;;;0.00;0.00;;;;;;;;2768832;51;8786;-61
2021/10/05 11:43:37;;;;;;;;;0.00;0.00;;;;;;;;2768825;51;8784;-64
2021/10/05 11:46:14;;;;;;;;;0.75;0.75;;;;;;;;2769044;51;8788;-61
2021/10/05 11:48:41;;;;;;;;;1.00;0.00;;;;;;;;2769110;51;8793;-61
2021/10/05 11:51:08;;;;;;;;;0.00;0.00;;;;;;;;2769075;51;8791;-62
2021/10/05 11:53:38;;;;;;;;;0.00;0.00;;;;;;;;2769143;51;8852;-63
2021/10/05 11:56:04;;;;;;;;;0.00;0.00;;;;;;;;2768845;51;8787;-61
2021/10/05 11:58:40;;;;;;;;;0.00;0.00;;;;;;;;2768891;51;8793;-62
2021/10/05 12:01:26;;;;;;;;;0.00;0.00;;;;;;;;2768775;51;8803;-62
2021/10/05 12:03:53;;;;;;;;;0.00;0.00;;;;;;;;2769211;51;8772;-63
2021/10/05 12:06:36;;;;;;;;;0.50;0.50;;;;;;;;2768566;51;9452;-60
2021/10/05 12:09:02;;;;;;;;;0.00;0.00;;;;;;;;2768755;51;8809;-62
2021/10/05 12:11:39;;;;;;;;;0.00;0.00;;;;;;;;2768771;51;9708;-61
2021/10/05 12:14:05;;;;;;;;;0.00;0.00;;;;;;;;2769039;51;8772;-60
2021/10/05 12:16:30;;;;;;;;;0.00;0.00;;;;;;;;2768671;51;8781;-62
2021/10/05 12:18:57;;;;;;;;;0.00;0.00;;;;;;;;2768779;51;8800;-62
2021/10/05 12:21:23;;;;;;;;;0.00;0.00;;;;;;;;2768655;51;8811;-62
2021/10/05 12:23:50;;;;;;;;;0.00;0.00;;;;;;;;2768623;51;8795;-61
2021/10/05 12:26:15;;;;;;;;;0.00;0.00;;;;;;;;2768828;51;11411;-60
2021/10/05 12:28:53;;;;;;;;;1.00;0.00;;;;;;;;2768716;51;8799;-61
2021/10/05 12:31:19;;;;;;;;;0.00;0.00;;;;;;;;2768875;51;8793;-60
2021/10/05 12:33:58;;;;;;;;;0.00;0.00;;;;;;;;2768427;51;8784;-61
2021/10/05 12:36:24;;;;;;;;;1.50;0.50;;;;;;;;2768995;51;8786;-62
2021/10/05 12:38:50;;;;;;;;;0.00;0.00;;;;;;;;2768852;51;8787;-61
2021/10/05 12:41:16;;;;;;;;;0.00;0.00;;;;;;;;2768523;51;9485;-60
2021/10/05 12:43:42;;;;;;;;;0.67;0.00;;;;;;;;2768503;51;8789;-60
2021/10/05 12:46:09;;;;;;;;;0.00;0.00;;;;;;;;2768981;51;8866;-61
2021/10/05 12:48:38;;;;;;;;;0.50;0.00;;;;;;;;2769544;51;8779;-62
2021/10/05 12:51:17;;;;;;;;;0.00;0.00;;;;;;;;2769709;51;9446;-60
2021/10/05 12:53:44;;;;;;;;;0.00;0.00;;;;;;;;2770676;51;8777;-62
2021/10/05 12:56:10;;;;;;;;;0.00;0.00;;;;;;;;2770903;51;8802;-61
2021/10/05 12:58:36;;;;;;;;;0.00;0.00;;;;;;;;2769798;51;8793;-63
2021/10/05 13:01:02;;;;;;;;;0.00;0.00;;;;;;;;2769572;51;8806;-65
2021/10/05 13:03:28;;;;;;;;;0.00;0.00;;;;;;;;2769533;51;9413;-63
2021/10/05 13:05:54;;;;;;;;;0.00;0.00;;;;;;;;2770005;51;8785;-65
2021/10/05 13:08:20;;;;;;;;;0.00;0.00;;;;;;;;2769367;51;8800;-63
2021/10/05 13:10:46;;;;;;;;;0.00;0.00;;;;;;;;2769326;51;8951;-63
2021/10/05 13:13:12;;;;;;;;;0.00;0.00;;;;;;;;2769577;51;8914;-63
2021/10/05 13:15:39;;;;;;;;;0.00;0.00;;;;;;;;2769334;51;8865;-62
2021/10/05 13:18:04;;;;;;;;;0.50;0.00;;;;;;;;2769185;51;8863;-61
2021/10/05 13:20:30;;;;;;;;;0.00;0.00;;;;;;;;2769411;51;9448;-62
2021/10/05 13:22:56;;;;;;;;;0.00;0.00;;;;;;;;2769617;51;8846;-67
2021/10/05 13:25:22;;;;;;;;;0.00;0.00;;;;;;;;2769088;51;8785;-63
2021/10/05 13:27:47;;;;;;;;;0.25;0.25;;;;;;;;2769629;51;8915;-65
2021/10/05 13:30:13;;;;;;;;;0.00;0.00;;;;;;;;2769276;51;8780;-62
2021/10/05 13:32:39;;;;;;;;;0.00;0.00;;;;;;;;2769355;51;8793;-62
2021/10/05 13:35:05;;;;;;;;;0.00;0.00;;;;;;;;2769414;51;9540;-63
2021/10/05 13:37:31;;;;;;;;;0.00;0.00;;;;;;;;2769914;51;8772;-63
2021/10/05 13:39:57;;;;;;;;;0.00;0.00;;;;;;;;2769754;51;8880;-61
2021/10/05 13:42:23;;;;;;;;;0.00;0.00;;;;;;;;2769184;51;12078;-64
2021/10/05 13:44:48;;;;;;;;;0.00;0.00;;;;;;;;2769724;51;8784;-63
2021/10/05 13:47:14;;;;;;;;;0.67;0.67;;;;;;;;2769594;51;8784;-63
2021/10/05 13:49:40;;;;;;;;;0.00;0.00;;;;;;;;2769200;51;8790;-64
2021/10/05 13:52:05;;;;;;;;;0.00;0.00;;;;;;;;2769245;51;8872;-62
2021/10/05 13:54:32;;;;;;;;;0.33;0.00;;;;;;;;2769297;51;8780;-62
2021/10/05 13:56:57;;;;;;;;;0.00;0.00;;;;;;;;2769450;51;8851;-62
2021/10/05 13:59:23;;;;;;;;;0.50;0.50;;;;;;;;2768858;51;8780;-62
2021/10/05 14:01:49;;;;;;;;;1.67;0.67;;;;;;;;2769336;51;8811;-64
2021/10/05 14:04:19;;;;;;;;;0.00;0.00;;;;;;;;2769104;51;8899;-64
2021/10/05 14:06:45;;;;;;;;;0.00;0.00;;;;;;;;2768903;51;8793;-64
2021/10/05 14:09:10;;;;;;;;;0.50;0.00;;;;;;;;2769390;51;9474;-63
2021/10/05 14:11:36;;;;;;;;;0.00;0.00;;;;;;;;2769593;51;8793;-65
2021/10/05 14:14:02;;;;;;;;;0.00;0.00;;;;;;;;2769303;51;8811;-62
2021/10/05 14:16:27;;;;;;;;;0.67;0.00;;;;;;;;2769328;51;8784;-64
2021/10/05 14:18:53;;;;;;;;;0.00;0.00;;;;;;;;2769389;51;9457;-63
2021/10/05 14:21:19;;;;;;;;;0.00;0.00;;;;;;;;2769281;51;8851;-63
2021/10/05 14:23:46;;;;;;;;;0.00;0.00;;;;;;;;2768736;51;11456;-62
2021/10/05 14:26:11;;;;;;;;;0.80;0.00;;;;;;;;2768667;51;9425;-64
2021/10/05 14:28:37;;;;;;;;;0.00;0.00;;;;;;;;2769698;51;8811;-62
2021/10/05 14:31:02;;;;;;;;;0.25;0.25;;;;;;;;2768156;51;8784;-62
2021/10/05 14:33:28;;;;;;;;;1.00;0.00;;;;;;;;2766896;51;8787;-61
2021/10/05 14:35:54;;;;;;;;;1.50;1.00;;;;;;;;2766844;51;8792;-61
2021/10/05 14:38:19;;;;;;;;;1.00;1.00;;;;;;;;2765540;51;9420;-62
2021/10/05 14:40:45;;;;;;;;;0.75;0.75;;;;;;;;2766055;51;8821;-64
2021/10/05 14:43:10;;;;;;;;;0.00;0.00;;;;;;;;2766129;51;8799;-65
2021/10/05 14:45:36;;;;;;;;;0.50;0.50;;;;;;;;2766515;51;8778;-65
2021/10/05 14:48:02;;;;;;;;;1.50;1.50;;;;;;;;2766588;51;8779;-64
2021/10/05 14:50:28;;;;;;;;;0.25;0.25;;;;;;;;2766509;51;8783;-64